createdAt,value
2018-05-07T00:00:36.409Z,1.63
2018-05-07T00:03:04.840Z,2.00
2018-05-07T00:05:33.267Z,2.00
2018-05-07T00:08:01.782Z,2.00
2018-05-07T00:10:30.212Z,2.10
2018-05-07T00:12:58.632Z,2.20
2018-05-07T00:15:27.096Z,2.10
2018-05-07T00:17:55.508Z,2.00
2018-05-07T00:20:23.936Z,2.30
2018-05-07T00:22:52.396Z,2.00
2018-05-07T00:25:20.804Z,2.23
2018-05-07T00:27:49.231Z,1.90
2018-05-07T00:30:17.686Z,2.10
2018-05-07T00:32:46.105Z,2.20
2018-05-07T00:35:14.519Z,2.10
2018-05-07T00:37:42.985Z,2.13
2018-05-07T00:40:11.424Z,2.17
2018-05-07T00:42:39.861Z,2.17
2018-05-07T00:45:08.324Z,2.30
2018-05-07T00:47:36.760Z,1.93
2018-05-07T00:50:05.184Z,2.00
2018-05-07T00:52:33.676Z,2.30
2018-05-07T00:55:13.997Z,2.07
2018-05-07T00:57:42.452Z,2.67
2018-05-07T01:00:10.876Z,2.30
2018-05-07T01:02:39.289Z,2.40
2018-05-07T01:05:07.794Z,2.50
2018-05-07T01:07:36.220Z,2.47
2018-05-07T01:10:04.669Z,2.30
2018-05-07T01:12:33.148Z,2.37
2018-05-07T01:15:01.557Z,2.67
2018-05-07T01:17:29.972Z,2.30
2018-05-07T01:19:58.462Z,2.20
2018-05-07T01:22:26.897Z,1.83
2018-05-07T01:24:55.309Z,2.50
2018-05-07T01:27:23.797Z,2.13
2018-05-07T01:29:52.236Z,2.33
2018-05-07T01:32:20.652Z,2.20
2018-05-07T01:34:49.130Z,2.50
2018-05-07T01:37:17.555Z,2.67
2018-05-07T01:40:00.592Z,2.70
2018-05-07T01:42:29.040Z,2.70
2018-05-07T01:44:57.465Z,2.93
2018-05-07T01:47:25.948Z,2.60
2018-05-07T01:49:54.381Z,2.57
2018-05-07T01:52:22.814Z,2.93
2018-05-07T01:54:51.324Z,2.50
2018-05-07T01:57:19.748Z,2.73
2018-05-07T01:59:48.164Z,3.00
2018-05-07T02:02:16.654Z,2.90
2018-05-07T02:04:45.087Z,2.80
2018-05-07T02:07:13.505Z,2.93
2018-05-07T02:09:41.976Z,2.63
2018-05-07T02:12:10.387Z,2.80
2018-05-07T02:14:38.803Z,3.00
2018-05-07T02:17:07.270Z,2.80
2018-05-07T02:19:35.687Z,2.83
2018-05-07T02:22:04.143Z,2.70
2018-05-07T02:24:32.591Z,3.07
2018-05-07T02:27:01.021Z,2.80
2018-05-07T02:29:29.452Z,3.13
2018-05-07T02:31:57.908Z,3.00
2018-05-07T02:34:26.361Z,2.93
2018-05-07T02:36:54.789Z,2.70
2018-05-07T02:39:23.260Z,2.90
2018-05-07T02:41:51.688Z,3.00
2018-05-07T02:44:20.134Z,3.03
2018-05-07T02:46:48.604Z,3.20
2018-05-07T02:49:17.037Z,3.00
2018-05-07T02:51:45.459Z,2.83
2018-05-07T02:54:13.921Z,2.97
2018-05-07T02:56:42.354Z,3.27
2018-05-07T02:59:10.785Z,3.47
2018-05-07T03:01:39.256Z,3.50
2018-05-07T03:04:07.669Z,3.27
2018-05-07T03:06:36.092Z,3.30
2018-05-07T03:09:04.589Z,3.10
2018-05-07T03:11:33.009Z,3.00
2018-05-07T03:14:01.437Z,3.37
2018-05-07T03:16:30.160Z,3.30
2018-05-07T03:18:58.577Z,3.00
2018-05-07T03:21:27.000Z,3.53
2018-05-07T03:23:55.486Z,3.30
2018-05-07T03:26:23.913Z,3.47
2018-05-07T03:28:52.328Z,3.13
2018-05-07T03:31:20.789Z,3.30
2018-05-07T03:33:49.204Z,3.33
2018-05-07T03:36:17.625Z,3.33
2018-05-07T03:38:46.120Z,3.17
2018-05-07T03:41:14.547Z,3.10
2018-05-07T03:43:42.980Z,3.27
2018-05-07T03:46:11.451Z,3.53
2018-05-07T03:48:39.904Z,3.10
2018-05-07T03:51:08.337Z,3.50
2018-05-07T03:53:36.804Z,3.63
2018-05-07T03:56:05.250Z,3.47
2018-05-07T03:58:33.680Z,3.77
2018-05-07T04:01:02.204Z,3.43
2018-05-07T04:03:30.656Z,3.87
2018-05-07T04:05:59.090Z,3.73
2018-05-07T04:08:27.539Z,3.43
2018-05-07T04:10:55.954Z,3.77
2018-05-07T04:13:24.380Z,3.40
2018-05-07T04:15:52.860Z,3.70
2018-05-07T04:21:27.136Z,4.03
2018-05-07T04:24:05.476Z,3.70
2018-05-07T04:26:33.927Z,3.83
2018-05-07T04:29:02.364Z,3.87
2018-05-07T04:31:30.781Z,4.07
2018-05-07T04:33:59.241Z,3.37
2018-05-07T04:36:27.682Z,3.23
2018-05-07T04:38:56.116Z,3.40
2018-05-07T04:41:24.576Z,3.70
2018-05-07T04:43:53.000Z,3.50
2018-05-07T04:46:21.413Z,3.63
2018-05-07T04:48:49.876Z,3.80
2018-05-07T04:51:18.299Z,3.50
2018-05-07T04:53:47.000Z,4.30
2018-05-07T04:56:15.465Z,3.40
2018-05-07T04:58:43.927Z,4.10
2018-05-07T05:01:12.397Z,4.00
2018-05-07T05:03:40.864Z,4.00
2018-05-07T05:06:09.284Z,4.00
2018-05-07T05:08:37.698Z,4.20
2018-05-07T05:11:06.149Z,4.00
2018-05-07T05:13:34.565Z,3.90
2018-05-07T05:16:02.988Z,3.57
2018-05-07T05:18:31.466Z,3.90
2018-05-07T05:20:59.890Z,4.40
2018-05-07T05:23:28.311Z,4.00
2018-05-07T05:25:56.792Z,3.70
2018-05-07T05:28:25.206Z,4.13
2018-05-07T05:30:53.641Z,4.57
2018-05-07T05:33:22.104Z,3.63
2018-05-07T05:35:50.525Z,4.03
2018-05-07T05:38:18.957Z,4.03
2018-05-07T05:40:47.436Z,3.90
2018-05-07T05:43:15.848Z,4.43
2018-05-07T05:45:44.261Z,3.73
2018-05-07T05:48:12.744Z,3.80
2018-05-07T05:50:41.166Z,3.80
2018-05-07T05:53:09.586Z,4.13
2018-05-07T05:55:38.071Z,3.83
2018-05-07T05:58:06.494Z,3.97
2018-05-07T06:00:34.920Z,3.80
2018-05-07T06:03:03.402Z,3.87
2018-05-07T06:05:31.861Z,4.07
2018-05-07T06:08:00.292Z,3.50
2018-05-07T06:10:28.796Z,4.00
2018-05-07T06:12:57.227Z,3.83
2018-05-07T06:15:25.657Z,4.13
2018-05-07T06:17:54.115Z,4.27
2018-05-07T06:20:22.534Z,3.93
2018-05-07T06:22:50.969Z,3.93
2018-05-07T06:25:19.453Z,4.37
2018-05-07T06:27:47.868Z,3.90
2018-05-07T06:30:16.291Z,3.80
2018-05-07T06:32:44.774Z,3.90
2018-05-07T06:35:13.188Z,4.20
2018-05-07T06:37:41.604Z,4.23
2018-05-07T06:40:10.091Z,3.97
2018-05-07T06:42:38.552Z,3.83
2018-05-07T06:45:07.020Z,3.73
2018-05-07T06:47:51.484Z,3.83
2018-05-07T06:50:19.915Z,3.47
2018-05-07T06:52:48.329Z,4.00
2018-05-07T06:55:16.791Z,3.17
2018-05-07T06:57:45.208Z,3.60
2018-05-07T07:00:13.674Z,3.73
2018-05-07T07:02:42.263Z,4.03
2018-05-07T07:05:10.608Z,4.03
2018-05-07T07:07:39.029Z,3.50
2018-05-07T07:10:07.506Z,3.70
2018-05-07T07:12:35.926Z,3.53
2018-05-07T07:15:04.393Z,3.93
2018-05-07T07:17:32.859Z,3.80
2018-05-07T07:20:01.278Z,3.40
2018-05-07T07:22:29.693Z,3.77
2018-05-07T07:24:58.187Z,3.23
2018-05-07T07:27:26.605Z,3.80
2018-05-07T07:29:55.025Z,3.90
2018-05-07T07:32:23.504Z,3.73
2018-05-07T07:34:51.920Z,3.10
2018-05-07T07:37:20.337Z,3.60
2018-05-07T07:39:48.788Z,3.60
2018-05-07T07:42:17.257Z,3.40
2018-05-07T07:44:45.671Z,3.70
2018-05-07T07:47:14.193Z,3.30
2018-05-07T07:49:42.600Z,3.67
2018-05-07T07:52:11.017Z,2.97
2018-05-07T07:54:39.473Z,3.30
2018-05-07T07:57:07.904Z,3.40
2018-05-07T07:59:36.325Z,3.93
2018-05-07T08:02:04.826Z,3.60
2018-05-07T08:04:33.258Z,3.50
2018-05-07T08:07:01.681Z,3.40
2018-05-07T08:09:30.164Z,3.47
2018-05-07T08:11:58.681Z,3.27
2018-05-07T08:14:27.061Z,3.00
2018-05-07T08:16:55.560Z,3.37
2018-05-07T08:19:23.976Z,3.30
2018-05-07T08:21:52.400Z,3.03
2018-05-07T08:24:20.876Z,3.20
2018-05-07T08:26:49.316Z,3.17
2018-05-07T08:29:17.768Z,2.93
2018-05-07T08:31:46.244Z,2.80
2018-05-07T08:34:14.685Z,2.83
2018-05-07T08:36:43.171Z,3.13
2018-05-07T08:39:11.588Z,3.40
2018-05-07T08:41:40.413Z,2.90
2018-05-07T08:44:08.832Z,3.10
2018-05-07T08:46:37.310Z,3.13
2018-05-07T08:49:05.741Z,3.07
2018-05-07T08:51:34.159Z,2.70
2018-05-07T08:54:02.630Z,2.70
2018-05-07T08:56:31.075Z,2.77
2018-05-07T08:58:59.510Z,2.77
2018-05-07T09:01:27.978Z,2.90
2018-05-07T09:03:56.397Z,2.93
2018-05-07T09:06:24.852Z,2.97
2018-05-07T09:08:53.318Z,2.30
2018-05-07T09:11:21.756Z,2.47
2018-05-07T09:13:50.172Z,2.40
2018-05-07T09:16:18.624Z,2.27
2018-05-07T09:18:47.069Z,2.40
2018-05-07T09:21:15.485Z,2.10
2018-05-07T09:23:43.988Z,1.77
2018-05-07T09:26:12.428Z,1.77
2018-05-07T09:28:40.855Z,2.10
2018-05-07T09:31:09.307Z,2.20
2018-05-07T09:33:37.735Z,2.20
2018-05-07T09:36:06.153Z,2.10
2018-05-07T09:38:34.612Z,2.13
2018-05-07T09:41:03.038Z,2.03
2018-05-07T09:43:31.464Z,2.03
2018-05-07T09:46:00.057Z,2.33
2018-05-07T09:48:28.484Z,2.30
2018-05-07T09:50:56.904Z,1.97
2018-05-07T09:53:25.370Z,1.87
2018-05-07T09:55:53.785Z,2.07
2018-05-07T09:58:22.205Z,1.73
2018-05-07T10:00:50.683Z,1.63
2018-05-07T10:03:19.112Z,1.73
2018-05-07T10:05:47.533Z,1.63
2018-05-07T10:08:15.991Z,1.60
2018-05-07T10:10:44.453Z,1.83
2018-05-07T10:13:12.868Z,2.10
2018-05-07T10:15:41.321Z,2.33
2018-05-07T10:18:09.741Z,2.00
2018-05-07T10:20:38.152Z,1.87
2018-05-07T10:23:06.612Z,1.37
2018-05-07T10:25:35.031Z,1.70
2018-05-07T10:28:03.461Z,1.70
2018-05-07T10:30:31.912Z,2.00
2018-05-07T10:33:00.336Z,1.90
2018-05-07T10:35:28.764Z,1.90
2018-05-07T10:37:57.229Z,1.90
2018-05-07T10:40:25.639Z,2.10
2018-05-07T10:42:54.057Z,2.13
2018-05-07T10:45:22.604Z,2.00
2018-05-07T10:47:50.980Z,2.20
2018-05-07T10:50:19.413Z,2.20
2018-05-07T10:52:47.906Z,1.80
2018-05-07T10:55:16.340Z,2.30
2018-05-07T10:57:44.760Z,2.27
2018-05-07T11:00:13.239Z,1.83
2018-05-07T11:02:41.649Z,1.80
2018-05-07T11:05:10.063Z,1.93
2018-05-07T11:07:38.523Z,2.13
2018-05-07T11:10:06.956Z,1.97
2018-05-07T11:12:35.367Z,2.27
2018-05-07T11:15:03.864Z,2.40
2018-05-07T11:17:32.296Z,2.50
2018-05-07T11:20:00.727Z,2.53
2018-05-07T11:22:29.203Z,2.70
2018-05-07T11:24:57.607Z,2.50
2018-05-07T11:27:26.014Z,2.00
2018-05-07T11:29:54.504Z,2.20
2018-05-07T11:32:22.944Z,1.90
2018-05-07T11:34:51.372Z,2.05
2018-05-07T11:37:19.837Z,1.83
2018-05-07T11:39:48.261Z,2.10
2018-05-07T11:42:16.669Z,1.93
2018-05-07T11:44:45.124Z,1.80
2018-05-07T11:47:13.555Z,1.83
2018-05-07T11:49:41.972Z,1.60
2018-05-07T11:52:10.441Z,1.83
2018-05-07T11:54:38.864Z,2.60
2018-05-07T11:57:07.293Z,2.15
2018-05-07T11:59:35.777Z,2.20
2018-05-07T12:02:04.195Z,2.40
2018-05-07T12:04:32.611Z,2.00
2018-05-07T12:07:01.105Z,2.17
2018-05-07T12:09:29.532Z,1.90
2018-05-07T12:11:57.970Z,2.10
2018-05-07T12:14:26.440Z,2.55
2018-05-07T12:16:54.856Z,1.80
2018-05-07T12:19:23.272Z,1.85
2018-05-07T12:21:51.770Z,2.08
2018-05-07T12:24:20.196Z,2.47
2018-05-07T12:26:48.629Z,2.30
2018-05-07T12:29:17.084Z,1.87
2018-05-07T12:31:45.588Z,1.95
2018-05-07T12:34:13.982Z,2.33
2018-05-07T12:36:42.499Z,2.72
2018-05-07T12:39:10.922Z,1.92
2018-05-07T12:41:39.352Z,2.42
2018-05-07T12:44:07.816Z,1.92
2018-05-07T12:46:36.244Z,1.77
2018-05-07T12:49:04.672Z,2.10
2018-05-07T12:51:33.140Z,2.30
2018-05-07T12:54:01.555Z,1.80
2018-05-07T12:56:29.982Z,2.33
2018-05-07T12:58:58.486Z,1.85
2018-05-07T13:01:27.149Z,1.60
2018-05-07T13:03:55.568Z,1.40
2018-05-07T13:06:24.033Z,1.70
2018-05-07T13:08:52.457Z,2.00
2018-05-07T13:11:20.899Z,1.35
2018-05-07T13:13:49.372Z,1.65
2018-05-07T13:16:17.783Z,1.55
2018-05-07T13:18:46.208Z,1.70
2018-05-07T13:21:14.694Z,1.70
2018-05-07T13:23:43.148Z,1.80
2018-05-07T13:26:11.563Z,2.05
2018-05-07T13:28:40.016Z,1.20
2018-05-07T13:31:08.445Z,1.40
2018-05-07T13:33:36.865Z,1.50
2018-05-07T13:36:05.396Z,1.33
2018-05-07T13:38:33.843Z,1.30
2018-05-07T13:41:02.264Z,1.25
2018-05-07T13:43:30.741Z,1.33
2018-05-07T13:45:59.182Z,1.62
2018-05-07T13:48:27.603Z,1.37
2018-05-07T13:50:56.069Z,1.50
2018-05-07T13:53:24.484Z,1.48
2018-05-07T13:55:52.927Z,1.55
2018-05-07T13:58:21.408Z,1.33
2018-05-07T14:00:49.835Z,1.12
2018-05-07T14:03:18.601Z,1.10
2018-05-07T14:05:47.076Z,1.55
2018-05-07T14:08:15.517Z,1.48
2018-05-07T14:10:43.932Z,1.50
2018-05-07T14:13:12.401Z,1.42
2018-05-07T14:15:41.012Z,1.37
2018-05-07T14:18:09.428Z,1.12
2018-05-07T14:20:37.912Z,1.48
2018-05-07T14:23:06.332Z,1.20
2018-05-07T14:25:34.757Z,1.02
2018-05-07T14:28:03.247Z,1.30
2018-05-07T14:30:31.660Z,1.12
2018-05-07T14:33:00.080Z,1.35
2018-05-07T14:35:28.549Z,1.00
2018-05-07T14:37:56.977Z,1.27
2018-05-07T14:40:25.400Z,1.40
2018-05-07T14:42:53.881Z,1.57
2018-05-07T14:45:22.341Z,1.20
2018-05-07T14:47:50.765Z,1.10
2018-05-07T14:50:19.243Z,1.20
2018-05-07T14:52:47.727Z,1.17
2018-05-07T14:55:16.169Z,1.00
2018-05-07T14:57:44.636Z,1.20
2018-05-07T15:00:13.079Z,1.03
2018-05-07T15:02:41.512Z,1.00
2018-05-07T15:05:10.011Z,1.27
2018-05-07T15:07:38.433Z,1.27
2018-05-07T15:10:06.857Z,1.20
2018-05-07T15:12:35.332Z,1.40
2018-05-07T15:15:03.812Z,1.00
2018-05-07T15:17:32.247Z,1.43
2018-05-07T15:20:00.705Z,1.50
2018-05-07T15:22:29.141Z,1.30
2018-05-07T15:24:57.572Z,1.83
2018-05-07T15:27:26.020Z,1.23
2018-05-07T15:29:54.465Z,1.40
2018-05-07T15:32:22.888Z,1.23
2018-05-07T15:34:51.354Z,1.20
2018-05-07T15:37:19.781Z,1.20
2018-05-07T15:39:48.192Z,1.20
2018-05-07T15:42:16.653Z,1.30
2018-05-07T15:44:45.064Z,1.17
2018-05-07T15:47:13.500Z,1.43
2018-05-07T15:49:41.953Z,1.03
2018-05-07T15:52:10.366Z,1.23
2018-05-07T15:54:38.830Z,1.50
2018-05-07T15:57:07.322Z,1.60
2018-05-07T15:59:35.742Z,0.87
2018-05-07T16:02:04.665Z,1.33
2018-05-07T16:04:33.135Z,1.20
2018-05-07T16:07:01.706Z,1.20
2018-05-07T16:09:30.117Z,1.20
2018-05-07T16:11:58.602Z,1.40
2018-05-07T16:14:27.024Z,0.70
2018-05-07T16:16:55.470Z,1.67
2018-05-07T16:19:23.925Z,1.00
2018-05-07T16:21:52.386Z,1.20
2018-05-07T16:24:20.799Z,1.10
2018-05-07T16:26:49.280Z,1.10
2018-05-07T16:29:17.692Z,1.43
2018-05-07T16:31:46.127Z,1.30
2018-05-07T16:34:14.580Z,1.47
2018-05-07T16:36:43.024Z,1.30
2018-05-07T16:39:11.435Z,1.40
2018-05-07T16:41:39.915Z,1.33
2018-05-07T16:44:08.325Z,1.37
2018-05-07T16:46:36.752Z,1.03
2018-05-07T16:49:05.299Z,1.40
2018-05-07T16:51:33.716Z,1.43
2018-05-07T16:54:02.141Z,1.10
2018-05-07T16:56:30.606Z,1.30
2018-05-07T16:58:59.032Z,1.13
2018-05-07T17:01:27.457Z,0.97
2018-05-07T17:03:55.913Z,1.10
2018-05-07T17:06:24.330Z,1.20
2018-05-07T17:08:52.746Z,1.27
2018-05-07T17:11:21.205Z,1.10
2018-05-07T17:13:49.625Z,1.00
2018-05-07T17:16:18.053Z,1.53
2018-05-07T17:18:46.525Z,1.03
2018-05-07T17:21:14.949Z,1.10
2018-05-07T17:23:43.368Z,1.30
2018-05-07T17:26:11.837Z,1.10
2018-05-07T17:28:40.280Z,1.20
2018-05-07T17:31:08.692Z,1.20
2018-05-07T17:33:37.194Z,1.20
2018-05-07T17:36:05.625Z,1.20
2018-05-07T17:38:34.045Z,1.30
2018-05-07T17:41:02.512Z,1.60
2018-05-07T17:43:30.932Z,1.30
2018-05-07T17:46:11.382Z,1.20
2018-05-07T17:48:51.416Z,1.30
2018-05-07T17:51:19.873Z,1.43
2018-05-07T17:53:48.297Z,1.20
2018-05-07T17:56:16.716Z,1.27
2018-05-07T17:58:45.213Z,1.30
2018-05-07T18:01:13.640Z,1.20
2018-05-07T18:03:42.073Z,1.20
2018-05-07T18:06:10.590Z,1.30
2018-05-07T18:08:39.022Z,1.33
2018-05-07T18:11:07.476Z,1.57
2018-05-07T18:13:35.947Z,1.40
2018-05-07T18:16:04.380Z,1.40
2018-05-07T18:18:32.793Z,1.03
2018-05-07T18:21:01.270Z,1.40
2018-05-07T18:23:29.693Z,1.20
2018-05-07T18:25:58.105Z,1.30
2018-05-07T18:28:26.564Z,1.30
2018-05-07T18:30:55.000Z,1.13
2018-05-07T18:33:23.430Z,1.10
2018-05-07T18:35:52.244Z,1.10
2018-05-07T18:38:20.764Z,1.63
2018-05-07T18:40:49.289Z,1.30
2018-05-07T18:43:17.796Z,1.83
2018-05-07T18:45:46.274Z,1.20
2018-05-07T18:48:14.722Z,1.30
2018-05-07T18:50:43.273Z,1.60
2018-05-07T18:53:11.755Z,1.30
2018-05-07T18:55:40.192Z,1.03
2018-05-07T18:58:08.659Z,1.20
2018-05-07T19:00:37.183Z,1.20
2018-05-07T19:03:05.683Z,1.10
2018-05-07T19:05:34.148Z,1.10
2018-05-07T19:08:02.590Z,1.10
2018-05-07T19:10:31.009Z,1.20
2018-05-07T19:12:59.476Z,1.10
2018-05-07T19:15:27.904Z,1.23
2018-05-07T19:17:56.335Z,2.20
2018-05-07T19:20:24.838Z,1.73
2018-05-07T19:22:53.260Z,2.13
2018-05-07T19:25:21.694Z,2.00
2018-05-07T19:27:50.165Z,1.50
2018-05-07T19:30:18.589Z,1.37
2018-05-07T19:32:47.005Z,1.20
2018-05-07T19:35:15.461Z,1.23
2018-05-07T19:37:43.900Z,1.33
2018-05-07T19:40:12.329Z,1.20
2018-05-07T19:42:40.779Z,1.57
2018-05-07T19:45:09.204Z,1.90
2018-05-07T19:47:37.616Z,1.60
2018-05-07T19:50:06.082Z,1.60
2018-05-07T19:52:34.496Z,1.40
2018-05-07T19:55:02.914Z,1.30
2018-05-07T19:57:31.380Z,1.53
2018-05-07T19:59:59.788Z,1.50
2018-05-07T20:02:28.210Z,1.40
2018-05-07T20:04:56.673Z,1.30
2018-05-07T20:07:25.099Z,1.10
2018-05-07T20:09:53.524Z,1.30
2018-05-07T20:12:22.051Z,1.33
2018-05-07T20:14:50.445Z,1.30
2018-05-07T20:17:18.865Z,1.57
2018-05-07T20:19:47.330Z,1.37
2018-05-07T20:22:15.853Z,1.40
2018-05-07T20:24:44.285Z,1.40
2018-05-07T20:27:12.750Z,1.50
2018-05-07T20:29:42.013Z,1.47
2018-05-07T20:32:10.435Z,1.63
2018-05-07T20:34:38.905Z,1.77
2018-05-07T20:37:07.397Z,2.27
2018-05-07T20:39:35.833Z,2.10
2018-05-07T20:42:04.331Z,1.67
2018-05-07T20:44:32.762Z,1.57
2018-05-07T20:47:01.207Z,1.67
2018-05-07T20:49:29.678Z,1.73
2018-05-07T20:51:58.114Z,1.53
2018-05-07T20:54:26.585Z,1.63
2018-05-07T20:56:55.053Z,1.47
2018-05-07T20:59:23.553Z,1.63
2018-05-07T21:01:51.956Z,1.87
2018-05-07T21:04:20.420Z,1.90
2018-05-07T21:06:48.849Z,1.80
2018-05-07T21:09:17.274Z,1.53
2018-05-07T21:11:45.740Z,1.67
2018-05-07T21:14:14.161Z,1.40
2018-05-07T21:16:42.594Z,1.50
2018-05-07T21:19:11.079Z,1.77
2018-05-07T21:21:39.493Z,1.57
2018-05-07T21:24:07.901Z,1.43
2018-05-07T21:26:36.381Z,1.67
2018-05-07T21:29:04.800Z,1.70
2018-05-07T21:31:33.224Z,2.00
2018-05-07T21:34:01.706Z,1.50
2018-05-07T21:36:30.120Z,1.60
2018-05-07T21:38:58.535Z,1.63
2018-05-07T21:41:27.024Z,1.90
2018-05-07T21:43:55.445Z,1.53
2018-05-07T21:46:23.874Z,1.60
2018-05-07T21:48:52.335Z,1.63
2018-05-07T21:51:20.760Z,1.47
2018-05-07T21:53:49.177Z,1.70
2018-05-07T21:56:17.652Z,1.60
2018-05-07T21:58:46.065Z,1.90
2018-05-07T22:01:14.492Z,1.87
2018-05-07T22:03:43.014Z,1.80
2018-05-07T22:06:11.440Z,1.70
2018-05-07T22:08:39.874Z,1.90
2018-05-07T22:11:08.341Z,2.00
2018-05-07T22:13:36.760Z,1.87
2018-05-07T22:16:05.192Z,1.67
2018-05-07T22:18:33.840Z,2.03
2018-05-07T22:21:02.266Z,2.40
2018-05-07T22:23:30.677Z,2.10
2018-05-07T22:25:59.152Z,2.03
2018-05-07T22:28:27.575Z,2.30
2018-05-07T22:30:55.990Z,2.60
2018-05-07T22:33:24.464Z,2.50
2018-05-07T22:35:52.886Z,2.50
2018-05-07T22:38:21.315Z,2.27
2018-05-07T22:40:49.777Z,2.03
2018-05-07T22:43:18.211Z,2.50
2018-05-07T22:45:46.636Z,2.53
2018-05-07T22:48:15.107Z,2.20
2018-05-07T22:50:43.524Z,2.33
2018-05-07T22:53:11.976Z,2.63
2018-05-07T22:55:40.457Z,2.10
2018-05-07T22:58:08.882Z,2.37
2018-05-07T23:00:37.343Z,2.50
2018-05-07T23:03:05.813Z,2.40
2018-05-07T23:05:34.232Z,2.40
2018-05-07T23:08:02.687Z,2.50
2018-05-07T23:10:31.164Z,2.70
2018-05-07T23:12:59.584Z,2.00
2018-05-07T23:15:28.015Z,2.33
2018-05-07T23:17:56.481Z,2.33
2018-05-07T23:20:24.912Z,2.10
2018-05-07T23:22:53.336Z,2.30
2018-05-07T23:25:21.849Z,2.40
2018-05-07T23:27:50.268Z,2.07
2018-05-07T23:30:18.692Z,2.60
2018-05-07T23:32:47.176Z,2.00
2018-05-07T23:35:15.595Z,2.60
2018-05-07T23:37:44.025Z,2.40
2018-05-07T23:40:12.492Z,2.10
2018-05-07T23:42:40.920Z,2.10
2018-05-07T23:45:09.343Z,2.30
2018-05-07T23:47:37.831Z,2.33
2018-05-07T23:50:06.251Z,2.30
2018-05-07T23:52:34.675Z,1.90
2018-05-07T23:55:03.245Z,2.00
2018-05-07T23:57:31.669Z,2.27
